Time;durP1;ratioP1;P1;durP2;ratioP2;P2;SDS_P1;SDS_P2;PMS_P1;PMS_P2;Temp;Humidity;BMP_temperature;BMP_pressure;BME280_temperature;BME280_humidity;BME280_pressure;Samples;Min_cycle;Max_cycle;Signal;HPM_P1;HPM_P2
2021/10/21 00:01:19;;;;;;;;;;;;;;;15.92;73.12;97176.16;5032385;28;20474;-74
2021/10/21 00:03:44;;;;;;;;;;;;;;;15.65;74.63;97167.63;5032207;28;19917;-75
2021/10/21 00:06:09;;;;;;;;;;;;;;;15.51;75.70;97146.28;5014064;28;19932;-74
2021/10/21 00:08:34;;;;;;;;;;;;;;;15.40;76.29;97180.13;5032043;28;19923;-74
2021/10/21 00:11:00;;;;;;;;;;;;;;;15.33;76.71;97170.38;5020358;28;19929;-76
2021/10/21 00:13:25;;;;;;;;;;;;;;;15.22;76.45;97193.63;5031687;28;19917;-77
2021/10/21 00:15:50;;;;;;;;;;;;;;;15.28;75.58;97197.41;5033475;28;20004;-75
2021/10/21 00:18:16;;;;;;;;;;;;;;;15.31;75.56;97185.63;5016107;28;19948;-75
2021/10/21 00:20:41;;;;;;;;;;;;;;;15.34;74.17;97190.63;5032306;28;19917;-75
2021/10/21 00:23:07;;;;;;;;;;;;;;;15.34;72.44;97199.41;5032469;28;20399;-74
2021/10/21 00:25:32;;;;;;;;;;;;;;;15.29;69.02;97187.66;5014009;28;19933;-76
2021/10/21 00:27:57;;;;;;;;;;;;;;;15.24;68.60;97207.56;5013567;28;19930;-76
2021/10/21 00:30:26;;;;;;;;;;;;;;;15.19;67.78;97214.38;5030928;28;20004;-75
2021/10/21 00:32:51;;;;;;;;;;;;;;;15.14;67.18;97214.88;5013233;28;19921;-76
2021/10/21 00:35:17;;;;;;;;;;;;;;;15.09;66.23;97188.00;5002912;28;19924;-75
2021/10/21 00:37:42;;;;;;;;;;;;;;;15.10;66.50;97200.28;5003188;28;19971;-76
2021/10/21 00:40:08;;;;;;;;;;;;;;;15.10;67.14;97164.94;5002989;28;20015;-76
2021/10/21 00:42:36;;;;;;;;;;;;;;;15.06;65.79;97185.66;5020783;28;19917;-75
2021/10/21 00:45:02;;;;;;;;;;;;;;;15.03;65.68;97191.31;5002005;28;20284;-75
2021/10/21 00:47:27;;;;;;;;;;;;;;;15.00;65.23;97197.78;5031184;28;19923;-76
2021/10/21 00:49:52;;;;;;;;;;;;;;;14.93;64.31;97185.38;5031487;28;19920;-75
2021/10/21 00:52:18;;;;;;;;;;;;;;;14.89;63.73;97184.03;5029486;28;20008;-73
2021/10/21 00:54:44;;;;;;;;;;;;;;;14.81;63.07;97161.00;5030955;28;20004;-75
2021/10/21 00:57:11;;;;;;;;;;;;;;;14.81;63.79;97148.56;5030994;28;19940;-76
2021/10/21 00:59:38;;;;;;;;;;;;;;;14.72;63.59;97160.19;5012699;28;20296;-74
2021/10/21 01:02:04;;;;;;;;;;;;;;;14.72;64.06;97141.63;4989234;28;19917;-75
2021/10/21 01:04:29;;;;;;;;;;;;;;;14.65;63.44;97164.50;5019015;28;19933;-75
2021/10/21 01:06:54;;;;;;;;;;;;;;;14.57;62.79;97177.72;5010795;28;19976;-76
2021/10/21 01:09:20;;;;;;;;;;;;;;;14.49;61.44;97172.41;5011000;28;20353;-76
2021/10/21 01:11:45;;;;;;;;;;;;;;;14.46;62.11;97176.22;5012436;28;19933;-75
2021/10/21 01:14:10;;;;;;;;;;;;;;;14.38;60.89;97181.50;5000262;28;19929;-73
2021/10/21 01:16:41;;;;;;;;;;;;;;;14.27;59.85;97174.69;5011325;28;19944;-75
2021/10/21 01:19:14;;;;;;;;;;;;;;;14.15;59.25;97158.28;5010643;28;19917;-75
2021/10/21 01:21:39;;;;;;;;;;;;;;;14.09;58.96;97139.56;5008841;28;20336;-75
2021/10/21 01:24:04;;;;;;;;;;;;;;;13.99;57.61;97146.81;5010485;28;19925;-75
2021/10/21 01:26:29;;;;;;;;;;;;;;;13.96;58.70;97161.22;5010868;28;19975;-76
2021/10/21 01:28:55;;;;;;;;;;;;;;;13.92;58.64;97152.75;5010640;28;19925;-75
2021/10/21 01:31:20;;;;;;;;;;;;;;;13.82;58.89;97145.94;5010126;28;19948;-75
2021/10/21 01:33:45;;;;;;;;;;;;;;;13.79;59.42;97123.25;5010555;28;19917;-76
2021/10/21 01:36:13;;;;;;;;;;;;;;;13.73;58.23;97142.44;5010064;28;19944;-75
2021/10/21 01:38:38;;;;;;;;;;;;;;;13.71;59.17;97133.84;5011122;28;20361;-74
2021/10/21 01:41:04;;;;;;;;;;;;;;;13.69;59.60;97151.69;5009760;28;19924;-74
2021/10/21 01:43:29;;;;;;;;;;;;;;;13.66;59.30;97131.66;5010323;28;19926;-76
2021/10/21 01:45:54;;;;;;;;;;;;;;;13.63;59.20;97125.84;5009847;28;20015;-76
2021/10/21 01:48:19;;;;;;;;;;;;;;;13.64;60.17;97128.34;5009096;28;19976;-75
2021/10/21 01:50:45;;;;;;;;;;;;;;;13.57;60.06;97121.22;5008968;28;20013;-75
2021/10/21 01:53:11;;;;;;;;;;;;;;;13.54;60.26;97122.34;5009885;28;19922;-76
2021/10/21 01:55:37;;;;;;;;;;;;;;;13.49;60.36;97098.19;5010465;28;19928;-76
2021/10/21 01:58:02;;;;;;;;;;;;;;;13.45;60.13;97116.19;5009915;28;19918;-76
2021/10/21 02:00:27;;;;;;;;;;;;;;;13.45;60.02;97118.00;5009250;28;19917;-75
2021/10/21 02:02:53;;;;;;;;;;;;;;;13.42;60.97;97098.00;5008918;28;20382;-76
2021/10/21 02:05:20;;;;;;;;;;;;;;;13.42;60.98;97098.00;5027088;28;19924;-74
2021/10/21 02:07:46;;;;;;;;;;;;;;;13.43;60.92;97091.69;5030002;28;19975;-75
2021/10/21 02:10:13;;;;;;;;;;;;;;;13.43;60.62;97075.81;5029570;28;19921;-75
2021/10/21 02:12:38;;;;;;;;;;;;;;;13.38;60.51;97091.34;5030676;28;20292;-75
2021/10/21 02:15:04;;;;;;;;;;;;;;;13.39;60.78;97090.38;5002500;28;19917;-75
2021/10/21 02:17:29;;;;;;;;;;;;;;;13.40;60.85;97086.72;5013058;28;22359;-74
2021/10/21 02:19:55;;;;;;;;;;;;;;;13.39;61.49;97084.22;5029547;28;19971;-75
2021/10/21 02:22:20;;;;;;;;;;;;;;;13.34;61.08;97091.81;5029099;28;20719;-75
2021/10/21 02:24:45;;;;;;;;;;;;;;;13.34;61.54;97068.88;5030348;28;19921;-76
2021/10/21 02:27:10;;;;;;;;;;;;;;;13.26;61.76;97061.66;5029819;28;19979;-75
2021/10/21 02:29:36;;;;;;;;;;;;;;;13.27;62.14;97071.31;5031474;28;19924;-74
2021/10/21 02:32:01;;;;;;;;;;;;;;;13.25;61.92;97069.78;5029839;28;19975;-74
2021/10/21 02:34:26;;;;;;;;;;;;;;;13.17;63.04;97065.28;5030254;28;19925;-74
2021/10/21 02:36:51;;;;;;;;;;;;;;;13.13;62.76;97058.66;5013079;28;19991;-75
2021/10/21 02:39:17;;;;;;;;;;;;;;;13.12;62.72;97051.72;5031225;28;19971;-74
2021/10/21 02:41:42;;;;;;;;;;;;;;;13.11;62.92;97053.50;5029480;28;19921;-74
2021/10/21 02:44:07;;;;;;;;;;;;;;;13.11;62.92;97055.31;5020006;28;19921;-74
2021/10/21 02:46:32;;;;;;;;;;;;;;;13.11;62.88;97050.03;5028364;28;20376;-74
2021/10/21 02:48:58;;;;;;;;;;;;;;;13.13;62.92;97052.53;5029186;28;19917;-77
2021/10/21 02:51:23;;;;;;;;;;;;;;;13.13;61.97;97058.66;4984571;28;19921;-74
2021/10/21 02:53:48;;;;;;;;;;;;;;;13.16;62.31;97042.44;5028023;28;20492;-75
2021/10/21 02:56:14;;;;;;;;;;;;;;;13.15;61.52;97047.91;5033325;28;20499;-75
2021/10/21 02:58:39;;;;;;;;;;;;;;;13.16;61.66;97028.41;5035478;28;19971;-76
2021/10/21 03:01:04;;;;;;;;;;;;;;;13.11;61.72;97055.31;5034813;28;20020;-76
2021/10/21 03:03:30;;;;;;;;;;;;;;;13.08;62.60;97059.13;5032671;28;19929;-75
2021/10/21 03:05:55;;;;;;;;;;;;;;;13.06;62.55;97055.78;5033262;28;19975;-74
2021/10/21 03:08:20;;;;;;;;;;;;;;;13.04;63.00;97055.16;5032159;28;19921;-75
2021/10/21 03:10:45;;;;;;;;;;;;;;;13.07;62.60;97048.72;5030408;28;19921;-74
2021/10/21 03:13:10;;;;;;;;;;;;;;;13.08;61.65;97064.41;5015228;28;19921;-75
2021/10/21 03:15:36;;;;;;;;;;;;;;;13.08;61.52;97071.53;5033381;28;19921;-74
2021/10/21 03:18:01;;;;;;;;;;;;;;;13.08;62.84;97058.28;5007114;28;19972;-74
2021/10/21 03:20:26;;;;;;;;;;;;;;;12.92;65.72;97069.63;5016022;28;19981;-76
2021/10/21 03:22:52;;;;;;;;;;;;;;;12.73;64.94;97068.03;5035405;28;19921;-75
2021/10/21 03:25:17;;;;;;;;;;;;;;;12.70;66.27;97063.06;5018629;28;19917;-75
2021/10/21 03:27:42;;;;;;;;;;;;;;;12.61;66.81;97051.59;5037202;28;19917;-76
2021/10/21 03:30:08;;;;;;;;;;;;;;;12.57;67.54;97050.25;5017614;28;19917;-75
2021/10/21 03:32:34;;;;;;;;;;;;;;;12.50;66.86;97046.56;5034427;28;20553;-76
2021/10/21 03:34:59;;;;;;;;;;;;;;;12.45;68.54;97032.97;5015982;28;19917;-76
2021/10/21 03:37:24;;;;;;;;;;;;;;;12.40;68.24;97053.75;5032848;28;19940;-77
2021/10/21 03:39:50;;;;;;;;;;;;;;;12.38;67.97;97035.44;5032008;28;19930;-76
2021/10/21 03:42:16;;;;;;;;;;;;;;;12.38;67.70;97021.38;5032372;28;19967;-75
2021/10/21 03:44:41;;;;;;;;;;;;;;;12.39;68.00;97041.53;5032262;28;20364;-75
2021/10/21 03:47:06;;;;;;;;;;;;;;;12.39;67.64;97025.69;5032633;28;19921;-75
2021/10/21 03:49:31;;;;;;;;;;;;;;;12.40;66.88;97040.53;4997596;28;19921;-75
2021/10/21 03:51:57;;;;;;;;;;;;;;;12.43;67.30;97048.19;5031353;28;19948;-76
2021/10/21 03:54:22;;;;;;;;;;;;;;;12.40;67.04;97040.53;5031010;28;19924;-75
2021/10/21 03:56:48;;;;;;;;;;;;;;;12.32;67.76;97064.28;5031337;28;20020;-76
2021/10/21 03:59:13;;;;;;;;;;;;;;;12.23;69.57;97044.88;5014512;28;19967;-75
2021/10/21 04:01:38;;;;;;;;;;;;;;;12.10;70.64;97057.66;5032343;28;19917;-74
2021/10/21 04:04:04;;;;;;;;;;;;;;;11.97;73.11;97068.59;5032065;28;19949;-75
2021/10/21 04:06:29;;;;;;;;;;;;;;;11.79;73.79;97061.50;5032553;28;20368;-75
2021/10/21 04:08:54;;;;;;;;;;;;;;;11.66;74.71;97068.09;5032320;28;19971;-76
2021/10/21 04:11:19;;;;;;;;;;;;;;;11.55;75.90;97074.44;5032442;28;19970;-75
2021/10/21 04:13:44;;;;;;;;;;;;;;;11.40;75.91;97058.28;5033050;28;20004;-74
2021/10/21 04:16:10;;;;;;;;;;;;;;;11.40;76.51;97071.47;5032654;28;19928;-75
2021/10/21 04:18:35;;;;;;;;;;;;;;;11.30;76.73;97058.31;5033178;28;20377;-75
2021/10/21 04:21:00;;;;;;;;;;;;;;;11.25;77.30;97065.84;5029696;28;19925;-76
2021/10/21 04:23:25;;;;;;;;;;;;;;;11.25;77.26;97080.81;5013539;28;19921;-75
2021/10/21 04:25:51;;;;;;;;;;;;;;;11.19;76.93;97066.41;5016587;28;20459;-75
2021/10/21 04:28:16;;;;;;;;;;;;;;;11.15;77.57;97088.81;5034689;28;19924;-76
2021/10/21 04:30:42;;;;;;;;;;;;;;;11.09;78.45;97071.75;5033344;28;19927;-75
2021/10/21 04:33:07;;;;;;;;;;;;;;;11.05;78.87;97077.44;5037414;28;19964;-75
2021/10/21 04:35:32;;;;;;;;;;;;;;;11.03;78.88;97076.78;5035802;28;19917;-76
2021/10/21 04:37:58;;;;;;;;;;;;;;;10.98;79.12;97090.41;5035410;28;19917;-74
2021/10/21 04:40:23;;;;;;;;;;;;;;;10.89;80.08;97102.63;5031471;28;19925;-75
2021/10/21 04:42:48;;;;;;;;;;;;;;;10.86;79.99;97107.38;5013154;28;19928;-75
2021/10/21 04:45:13;;;;;;;;;;;;;;;10.81;79.93;97117.50;5031371;28;19924;-76
2021/10/21 04:47:39;;;;;;;;;;;;;;;10.79;79.57;97117.63;5031825;28;19925;-75
2021/10/21 04:50:04;;;;;;;;;;;;;;;10.78;80.27;97117.75;4996686;28;20004;-77
2021/10/21 04:52:29;;;;;;;;;;;;;;;10.73;80.26;97139.28;5013265;28;19917;-75
2021/10/21 04:54:55;;;;;;;;;;;;;;;10.70;80.05;97164.09;5040307;28;19914;-76
2021/10/21 04:57:20;;;;;;;;;;;;;;;10.69;80.17;97148.44;5030665;28;19952;-75
2021/10/21 04:59:45;;;;;;;;;;;;;;;10.65;81.00;97162.88;5030998;28;19924;-75
2021/10/21 05:02:10;;;;;;;;;;;;;;;10.59;81.78;97168.72;5029894;28;19917;-75
2021/10/21 05:04:36;;;;;;;;;;;;;;;10.55;82.21;97176.03;5027139;28;19918;-75
2021/10/21 05:07:01;;;;;;;;;;;;;;;10.52;81.71;97179.78;5029362;28;20445;-75
2021/10/21 05:09:26;;;;;;;;;;;;;;;10.51;82.51;97199.22;5030478;28;20000;-75
2021/10/21 05:11:52;;;;;;;;;;;;;;;10.51;83.34;97228.19;5029639;28;19929;-75
2021/10/21 05:14:17;;;;;;;;;;;;;;;10.46;83.04;97226.91;5030734;28;19917;-76
2021/10/21 05:16:42;;;;;;;;;;;;;;;10.46;84.24;97222.50;5030507;28;19917;-77
2021/10/21 05:19:07;;;;;;;;;;;;;;;10.43;83.65;97256.19;5013283;28;19917;-76
2021/10/21 05:21:33;;;;;;;;;;;;;;;10.38;83.90;97295.25;5011701;28;19917;-76
2021/10/21 05:23:58;;;;;;;;;;;;;;;10.36;83.39;97310.34;5030366;28;19917;-75
2021/10/21 05:26:23;;;;;;;;;;;;;;;10.28;83.11;97316.31;5030116;28;19921;-75
2021/10/21 05:28:48;;;;;;;;;;;;;;;10.21;82.15;97337.03;5030315;28;19917;-76
2021/10/21 05:31:13;;;;;;;;;;;;;;;10.16;80.86;97351.56;5030158;28;19963;-75
2021/10/21 05:33:39;;;;;;;;;;;;;;;10.08;80.50;97362.78;5030877;28;19960;-75
2021/10/21 05:36:04;;;;;;;;;;;;;;;9.99;80.80;97380.19;5030042;28;19941;-75
2021/10/21 05:38:30;;;;;;;;;;;;;;;9.89;79.95;97384.56;5029888;28;19936;-75
2021/10/21 05:40:55;;;;;;;;;;;;;;;9.81;80.09;97408.06;5029457;28;19917;-76
2021/10/21 05:43:24;;;;;;;;;;;;;;;9.75;80.49;97438.38;5030063;28;20396;-75
2021/10/21 05:45:49;;;;;;;;;;;;;;;9.70;80.65;97472.13;5029712;28;19921;-77
2021/10/21 05:48:16;;;;;;;;;;;;;;;9.62;80.75;97449.09;5030118;28;19917;-75
2021/10/21 05:50:41;;;;;;;;;;;;;;;9.58;80.69;97491.53;5029239;28;19923;-74
2021/10/21 05:53:06;;;;;;;;;;;;;;;9.56;81.10;97527.66;5030149;28;19917;-75
2021/10/21 05:55:32;;;;;;;;;;;;;;;9.53;80.77;97534.00;5012119;28;19944;-76
2021/10/21 05:57:57;;;;;;;;;;;;;;;9.51;80.63;97566.66;5029777;28;19917;-76
2021/10/21 06:00:22;;;;;;;;;;;;;;;9.51;80.45;97570.09;5029155;28;19925;-75
2021/10/21 06:02:47;;;;;;;;;;;;;;;9.51;80.39;97580.63;5029318;28;19971;-75
2021/10/21 06:05:13;;;;;;;;;;;;;;;9.48;80.43;97594.03;5028945;28;20436;-77
2021/10/21 06:07:39;;;;;;;;;;;;;;;9.46;81.01;97620.44;5030963;28;19917;-75
2021/10/21 06:10:04;;;;;;;;;;;;;;;9.45;80.26;97638.97;5029592;28;19924;-76
2021/10/21 06:12:29;;;;;;;;;;;;;;;9.45;80.59;97667.91;5029674;28;20511;-76
2021/10/21 06:14:55;;;;;;;;;;;;;;;9.45;80.69;97676.63;5028797;28;19918;-76
2021/10/21 06:17:22;;;;;;;;;;;;;;;9.46;80.49;97703.78;5029918;28;19925;-77
2021/10/21 06:19:47;;;;;;;;;;;;;;;9.48;80.65;97717.66;5032128;28;20420;-75
2021/10/21 06:22:14;;;;;;;;;;;;;;;9.47;81.83;97726.47;5012075;28;19924;-76
2021/10/21 06:24:39;;;;;;;;;;;;;;;9.41;81.99;97774.31;4998465;28;20334;-74
2021/10/21 06:27:04;;;;;;;;;;;;;;;9.37;81.79;97792.09;5031036;28;20059;-75
2021/10/21 06:29:30;;;;;;;;;;;;;;;9.34;82.36;97802.03;5012508;28;20279;-75
2021/10/21 06:31:55;;;;;;;;;;;;;;;9.31;81.37;97815.41;5029426;28;19924;-75
2021/10/21 06:34:21;;;;;;;;;;;;;;;9.28;81.68;97842.78;5029791;28;20380;-74
2021/10/21 06:36:46;;;;;;;;;;;;;;;9.20;80.12;97866.97;5029479;28;19969;-76
2021/10/21 06:39:12;;;;;;;;;;;;;;;9.18;79.27;97894.34;5030717;28;19975;-75
2021/10/21 06:41:37;;;;;;;;;;;;;;;9.15;79.66;97912.97;5012489;28;19921;-75
2021/10/21 06:44:02;;;;;;;;;;;;;;;9.10;78.40;97910.69;5029280;28;19921;-76
2021/10/21 06:46:28;;;;;;;;;;;;;;;9.07;76.79;97924.06;5029665;28;20008;-74
2021/10/21 06:48:54;;;;;;;;;;;;;;;9.07;76.68;97942.47;5011925;28;19917;-74
2021/10/21 06:51:20;;;;;;;;;;;;;;;9.09;76.48;97966.84;5028355;28;19924;-75
2021/10/21 06:53:45;;;;;;;;;;;;;;;9.05;77.04;97983.78;5028819;28;19917;-75
2021/10/21 06:56:10;;;;;;;;;;;;;;;9.06;77.21;97996.00;5029520;28;19917;-76
2021/10/21 06:58:36;;;;;;;;;;;;;;;9.08;76.75;98001.13;5011152;28;19997;-75
2021/10/21 07:01:01;;;;;;;;;;;;;;;9.11;77.10;98020.16;5004461;28;19918;-76
2021/10/21 07:03:26;;;;;;;;;;;;;;;9.14;77.73;98040.97;5011933;28;20403;-76
2021/10/21 07:05:53;;;;;;;;;;;;;;;9.16;78.18;98044.31;5011805;28;20009;-75
2021/10/21 07:08:20;;;;;;;;;;;;;;;9.22;79.24;98054.38;5010531;28;20374;-76
2021/10/21 07:10:45;;;;;;;;;;;;;;;9.26;79.58;98067.34;5008512;28;19928;-75
2021/10/21 07:13:11;;;;;;;;;;;;;;;9.34;79.34;98072.88;5009470;28;20361;-76
2021/10/21 07:15:37;;;;;;;;;;;;;;;9.38;78.96;98083.06;5009326;28;19952;-76
2021/10/21 07:18:02;;;;;;;;;;;;;;;9.50;78.61;98080.50;5009198;28;19968;-75
2021/10/21 07:20:27;;;;;;;;;;;;;;;9.63;77.38;98095.28;5008318;28;19925;-75
2021/10/21 07:22:53;;;;;;;;;;;;;;;9.71;77.35;98105.25;5008485;28;20024;-75
2021/10/21 07:25:18;;;;;;;;;;;;;;;9.79;77.61;98123.13;5009152;28;19917;-76
2021/10/21 07:27:44;;;;;;;;;;;;;;;9.83;77.67;98127.22;5008620;28;19918;-75
2021/10/21 07:30:10;;;;;;;;;;;;;;;9.89;78.06;98138.16;5009485;28;20055;-75
2021/10/21 07:32:36;;;;;;;;;;;;;;;9.95;77.46;98150.00;5007287;28;19923;-77
2021/10/21 07:35:02;;;;;;;;;;;;;;;10.01;76.60;98157.44;5007394;28;19925;-75
2021/10/21 07:37:27;;;;;;;;;;;;;;;10.10;77.24;98166.47;5008277;28;20337;-75
2021/10/21 07:39:52;;;;;;;;;;;;;;;10.18;76.56;98187.81;5009516;28;20377;-77
2021/10/21 07:42:17;;;;;;;;;;;;;;;10.26;76.60;98193.38;5007554;28;19976;-77
2021/10/21 07:44:46;;;;;;;;;;;;;;;10.36;75.23;98205.88;5012992;28;19922;-76
2021/10/21 07:47:11;;;;;;;;;;;;;;;10.44;73.96;98200.91;5022663;28;19932;-75
2021/10/21 07:49:37;;;;;;;;;;;;;;;10.58;74.02;98210.41;5024451;28;20008;-68
2021/10/21 07:52:03;;;;;;;;;;;;;;;10.68;74.02;98229.84;5022607;28;19953;-70
2021/10/21 07:54:32;;;;;;;;;;;;;;;10.76;73.00;98253.03;5031908;28;20373;-70
2021/10/21 07:56:57;;;;;;;;;;;;;;;10.76;73.73;98237.19;5023386;28;19963;-69
2021/10/21 07:59:23;;;;;;;;;;;;;;;10.76;73.16;98259.13;5031655;28;19960;-69
2021/10/21 08:01:49;;;;;;;;;;;;;;;10.78;73.39;98259.84;5031459;28;19917;-70
2021/10/21 08:04:15;;;;;;;;;;;;;;;10.74;72.89;98274.19;5031397;28;19928;-69
2021/10/21 08:06:44;;;;;;;;;;;;;;;10.78;72.36;98249.31;5024266;28;19921;-69
2021/10/21 08:09:09;;;;;;;;;;;;;;;10.82;71.71;98269.19;5026558;28;20005;-70
2021/10/21 08:11:35;;;;;;;;;;;;;;;10.86;70.89;98280.38;5030902;28;20016;-71
2021/10/21 08:14:00;;;;;;;;;;;;;;;10.84;70.77;98283.09;5031440;28;19921;-70
2021/10/21 08:16:25;;;;;;;;;;;;;;;10.84;71.62;98296.28;5028743;28;19920;-72
2021/10/21 08:18:51;;;;;;;;;;;;;;;10.77;70.46;98287.16;5009902;28;19921;-69
2021/10/21 08:21:16;;;;;;;;;;;;;;;10.74;69.51;98296.13;5018517;28;19929;-70
2021/10/21 08:23:42;;;;;;;;;;;;;;;10.90;69.63;98295.84;5001836;28;19922;-72
2021/10/21 08:26:08;;;;;;;;;;;;;;;10.94;69.27;98302.56;4986937;28;19933;-74
2021/10/21 08:28:36;;;;;;;;;;;;;;;10.98;69.68;98305.81;5014260;28;19925;-76
2021/10/21 08:31:01;;;;;;;;;;;;;;;10.96;68.61;98305.91;4993811;28;20412;-74
2021/10/21 08:33:26;;;;;;;;;;;;;;;11.03;69.25;98313.38;5011059;28;19928;-75
2021/10/21 08:35:52;;;;;;;;;;;;;;;11.07;68.87;98306.91;4985270;28;19921;-74
2021/10/21 08:38:18;;;;;;;;;;;;;;;11.12;67.55;98310.03;5012549;28;20568;-74
2021/10/21 08:40:44;;;;;;;;;;;;;;;11.25;67.41;98318.72;5019002;28;19944;-73
2021/10/21 08:43:12;;;;;;;;;;;;;;;11.40;67.01;98324.63;5016021;28;20393;-75
2021/10/21 08:45:37;;;;;;;;;;;;;;;11.63;65.23;98327.31;5006574;28;19932;-76
2021/10/21 08:48:03;;;;;;;;;;;;;;;11.94;64.23;98309.97;5025304;28;19925;-75
2021/10/21 08:50:30;;;;;;;;;;;;;;;12.48;62.45;98321.53;5029287;28;20657;-76
2021/10/21 08:52:55;;;;;;;;;;;;;;;12.73;59.79;98326.53;5029682;28;20037;-76
2021/10/21 08:55:20;;;;;;;;;;;;;;;12.87;60.18;98320.97;5024254;28;20082;-76
2021/10/21 08:57:46;;;;;;;;;;;;;;;12.71;60.60;98332.91;5026134;28;19924;-76
2021/10/21 09:00:12;;;;;;;;;;;;;;;12.65;60.35;98321.88;5007010;28;19917;-74
2021/10/21 09:02:53;;;;;;;;;;;;;;;12.91;60.01;98342.69;5007935;28;19952;-74
2021/10/21 09:08:03;;;;;;;;;;;;;;;13.39;58.24;98336.13;5004928;28;19957;-73
2021/10/21 09:10:29;;;;;;;;;;;;;;;12.79;59.61;98354.28;5027170;28;19921;-75
2021/10/21 09:12:58;;;;;;;;;;;;;;;12.50;60.21;98360.09;5000097;28;20410;-74
2021/10/21 09:15:26;;;;;;;;;;;;;;;12.23;61.28;98350.78;5007774;28;19921;-75
2021/10/21 09:17:51;;;;;;;;;;;;;;;12.31;61.61;98365.19;5007395;28;19925;-76
2021/10/21 09:20:25;;;;;;;;;;;;;;;12.56;61.88;98364.06;5005991;28;20334;-74
2021/10/21 09:22:55;;;;;;;;;;;;;;;12.42;62.23;98370.44;5025506;28;19926;-74
2021/10/21 09:25:23;;;;;;;;;;;;;;;12.28;62.87;98368.91;5003562;28;19921;-75
2021/10/21 09:27:49;;;;;;;;;;;;;;;12.21;62.93;98370.34;5006341;28;19928;-76
2021/10/21 09:30:21;;;;;;;;;;;;;;;12.19;63.24;98372.28;5024856;28;19921;-75
2021/10/21 09:32:47;;;;;;;;;;;;;;;12.34;62.86;98365.78;5026453;28;20580;-77
2021/10/21 09:35:18;;;;;;;;;;;;;;;12.57;62.29;98369.22;5025721;28;19927;-77
2021/10/21 09:37:44;;;;;;;;;;;;;;;12.46;63.00;98380.66;4998423;28;20553;-75
2021/10/21 09:40:12;;;;;;;;;;;;;;;12.33;62.39;98379.97;4995685;28;20348;-77
2021/10/21 09:42:44;;;;;;;;;;;;;;;12.25;62.21;98385.81;5025037;28;20532;-75
2021/10/21 09:45:18;;;;;;;;;;;;;;;12.57;62.76;98382.44;4987230;28;20007;-74
2021/10/21 09:47:45;;;;;;;;;;;;;;;12.41;62.07;98384.63;5003935;28;20760;-75
2021/10/21 09:50:27;;;;;;;;;;;;;;;12.25;61.93;98385.81;5014042;28;19929;-74
2021/10/21 09:53:07;;;;;;;;;;;;;;;12.29;61.90;98402.28;5020478;28;19921;-75
2021/10/21 09:55:33;;;;;;;;;;;;;;;12.67;60.55;98399.28;5018362;28;19927;-74
2021/10/21 09:58:02;;;;;;;;;;;;;;;13.04;59.85;98401.59;5044374;28;19921;-75
2021/10/21 10:00:32;;;;;;;;;;;;;;;14.23;56.01;98402.28;5003940;28;19936;-74
2021/10/21 10:03:17;;;;;;;;;;;;;;;14.59;54.33;98392.94;5007623;28;20040;-74
2021/10/21 10:05:43;;;;;;;;;;;;;;;14.02;56.51;98405.78;5001785;28;19961;-75
2021/10/21 10:08:09;;;;;;;;;;;;;;;13.88;56.43;98409.63;4986522;28;19921;-74
2021/10/21 10:10:35;;;;;;;;;;;;;;;13.87;56.09;98413.22;4986597;28;19983;-74
2021/10/21 10:13:15;;;;;;;;;;;;;;;13.60;57.18;98426.16;5002725;28;19921;-76
2021/10/21 10:15:44;;;;;;;;;;;;;;;13.55;57.41;98420.41;5003032;28;20380;-75
2021/10/21 10:18:13;;;;;;;;;;;;;;;13.29;57.81;98429.53;4986806;28;20625;-75
2021/10/21 10:20:38;;;;;;;;;;;;;;;13.59;57.85;98427.13;5003825;28;20592;-75
2021/10/21 10:23:04;;;;;;;;;;;;;;;13.78;57.16;98427.25;5005641;28;19927;-73
2021/10/21 10:25:30;;;;;;;;;;;;;;;13.81;57.11;98420.84;5005303;28;19969;-73
2021/10/21 10:27:59;;;;;;;;;;;;;;;13.87;56.99;98426.47;4987522;28;19968;-74
2021/10/21 10:30:41;;;;;;;;;;;;;;;13.50;57.13;98439.31;5003783;28;19925;-75
2021/10/21 10:33:06;;;;;;;;;;;;;;;13.35;57.84;98430.84;4990456;28;19922;-73
2021/10/21 10:35:33;;;;;;;;;;;;;;;13.39;57.89;98434.06;5015704;28;19939;-74
2021/10/21 10:38:00;;;;;;;;;;;;;;;13.44;58.71;98448.63;5013290;28;19927;-75
2021/10/21 10:40:39;;;;;;;;;;;;;;;13.55;58.76;98437.13;5005001;28;19921;-74
2021/10/21 10:43:05;;;;;;;;;;;;;;;13.59;57.66;98453.63;5004494;28;19921;-76
2021/10/21 10:45:37;;;;;;;;;;;;;;;13.42;57.49;98445.25;4987183;28;19925;-75
2021/10/21 10:48:02;;;;;;;;;;;;;;;13.35;57.31;98446.72;5004058;28;19921;-76
2021/10/21 10:50:29;;;;;;;;;;;;;;;13.44;57.83;98450.44;4985210;28;19983;-74
2021/10/21 10:52:58;;;;;;;;;;;;;;;13.51;57.65;98441.84;4985583;28;19968;-74
2021/10/21 10:55:36;;;;;;;;;;;;;;;13.44;57.93;98451.28;4986077;28;20456;-74
2021/10/21 10:58:02;;;;;;;;;;;;;;;13.42;58.77;98447.06;5010051;28;19999;-74
2021/10/21 11:00:33;;;;;;;;;;;;;;;13.34;57.85;98450.34;5022755;28;19925;-74
2021/10/21 11:02:58;;;;;;;;;;;;;;;13.44;58.19;98450.44;5023429;28;19975;-76
2021/10/21 11:05:47;;;;;;;;;;;;;;;13.46;57.96;98464.34;5023035;28;19921;-75
2021/10/21 11:08:16;;;;;;;;;;;;;;;13.33;57.85;98467.19;5004719;28;19947;-74
2021/10/21 11:10:45;;;;;;;;;;;;;;;13.21;58.21;98465.50;5022702;28;19955;-76
2021/10/21 11:13:19;;;;;;;;;;;;;;;13.10;59.04;98472.50;5023613;28;19928;-75
2021/10/21 11:15:48;;;;;;;;;;;;;;;13.02;59.32;98472.28;5023190;28;19917;-73
2021/10/21 11:18:39;;;;;;;;;;;;;;;13.02;59.15;98472.28;5019513;28;19928;-74
2021/10/21 11:21:06;;;;;;;;;;;;;;;13.16;59.12;98478.25;4993794;28;20329;-75
2021/10/21 11:23:31;;;;;;;;;;;;;;;13.15;59.37;98474.78;5009396;28;19921;-75
2021/10/21 11:26:03;;;;;;;;;;;;;;;13.21;59.08;98468.97;5027184;28;20292;-74
2021/10/21 11:28:30;;;;;;;;;;;;;;;13.16;58.82;98457.09;5027969;28;19921;-75
2021/10/21 11:30:55;;;;;;;;;;;;;;;13.08;59.22;98466.50;5026135;28;19986;-76
2021/10/21 11:33:21;;;;;;;;;;;;;;;13.02;59.59;98477.59;4994053;28;19960;-75
2021/10/21 11:35:46;;;;;;;;;;;;;;;12.94;59.41;98465.91;5007912;28;19964;-75
2021/10/21 11:38:13;;;;;;;;;;;;;;;12.89;59.35;98476.88;5007555;28;19928;-75
2021/10/21 11:40:39;;;;;;;;;;;;;;;12.88;59.30;98460.16;5009772;28;19954;-74
2021/10/21 11:43:04;;;;;;;;;;;;;;;12.88;59.27;98464.63;5027131;28;19925;-76
2021/10/21 11:45:32;;;;;;;;;;;;;;;12.81;59.38;98460.78;5027124;28;19985;-76
2021/10/21 11:47:59;;;;;;;;;;;;;;;12.80;59.66;98469.69;5026576;28;19921;-75
2021/10/21 11:50:36;;;;;;;;;;;;;;;12.80;60.40;98473.16;5008475;28;20690;-75
2021/10/21 11:53:02;;;;;;;;;;;;;;;12.77;60.86;98477.84;5026830;28;20023;-74
2021/10/21 11:55:27;;;;;;;;;;;;;;;12.66;62.48;98474.25;5026954;28;19986;-74
2021/10/21 11:57:56;;;;;;;;;;;;;;;12.57;63.79;98490.00;5026367;28;20375;-74
2021/10/21 12:00:23;;;;;;;;;;;;;;;12.42;65.87;98495.50;5008340;28;19909;-74
2021/10/21 12:02:56;;;;;;;;;;;;;;;12.15;67.67;98490.53;5008651;28;20379;-73
2021/10/21 12:05:25;;;;;;;;;;;;;;;11.97;68.48;98510.44;5026034;28;20399;-74
2021/10/21 12:07:51;;;;;;;;;;;;;;;11.82;68.39;98500.03;5014986;28;20020;-74
2021/10/21 12:10:23;;;;;;;;;;;;;;;11.75;68.95;98493.53;5007975;28;19928;-73
2021/10/21 12:12:48;;;;;;;;;;;;;;;11.66;69.01;98502.13;5026005;28;19921;-74
2021/10/21 12:15:15;;;;;;;;;;;;;;;11.59;70.37;98511.47;4992794;28;19921;-74
2021/10/21 12:17:41;;;;;;;;;;;;;;;11.49;70.44;98521.00;5008683;28;19917;-74
2021/10/21 12:20:07;;;;;;;;;;;;;;;11.41;71.78;98555.06;5005007;28;19999;-75
2021/10/21 12:22:37;;;;;;;;;;;;;;;11.28;72.90;98550.66;5010275;28;20289;-75
2021/10/21 12:25:02;;;;;;;;;;;;;;;11.21;74.45;98562.59;4997286;28;19921;-75
2021/10/21 12:27:28;;;;;;;;;;;;;;;11.10;74.73;98567.78;5015625;28;19921;-74
2021/10/21 12:30:00;;;;;;;;;;;;;;;10.93;74.94;98561.94;5026187;28;19921;-74
2021/10/21 12:32:26;;;;;;;;;;;;;;;10.72;74.97;98568.69;5025666;28;19921;-76
2021/10/21 12:35:01;;;;;;;;;;;;;;;10.55;76.56;98580.38;5026393;28;19925;-74
2021/10/21 12:37:28;;;;;;;;;;;;;;;10.42;77.33;98576.91;5026277;28;20110;-75
2021/10/21 12:40:08;;;;;;;;;;;;;;;10.30;78.16;98573.31;5014711;28;19921;-76
2021/10/21 12:42:33;;;;;;;;;;;;;;;10.08;77.85;98592.31;5006241;28;19922;-76
2021/10/21 12:45:00;;;;;;;;;;;;;;;9.89;78.56;98598.81;5006862;28;19921;-75
2021/10/21 12:47:29;;;;;;;;;;;;;;;9.75;80.31;98603.28;5006256;28;19926;-74